Tremelo, Belgium
Current Conditions -  °F | °C
As of 12:50 PM on Saturday 25 Oct 2014 (Local Time) from EBBR Reporting Station
Drizzle Drizzle  
Wind Chill: 55°   Ceiling: 600
Heat Index: 55°   Visibility: 2.3mi
Dew Point: 52°   Wind: 9mph
Humidity: 88%   Direction: 240°WSW
Pressure: 30.09"   Gusts: NA
Location:  50.99°N, 4.71°E
Report Text: EBBR 251050Z 24008KT 3800 -DZ BKN006 13/11 Q1019 NOSIG
Loading
Personal Weather Stations






























Interactive Weather Map
Tropical Storm Tracking
New forecast layout! Learn more

10-Day Weather Forecast

Advertisements
Track Severe Weather on mobile